Friday, September 19, 2014
15:58 UTC
  |  Log In   |  Register Free
Airport Search:

Big Bear City Airport
(L35)

Big Bear City Airport Diagram
No Airport Diagram Available

FAA data valid effective September 18, 2014 - November 13, 2014 (unless otherwise noted).

 
 
 
 
 
 
 
 
 
 
 
 
 
 

Current Aviation Weather for Big Bear City Airport (L35)

METAR data is unavailable for L35. The nearest METAR location is at KSBD (21.4 nm SW from L35).

The most recent METAR observation for KSBD was updated at: 1518
METAR Summary (Translated METAR)
KSBD
191451Z 23004KT 7SM OVC028 19/15 A2992
(21.4 nm SW from L35)
KAPV
191256Z AUTO 05004KT 10SM FEW075 SCT090 BKN110 18/18 A2996 RMK AO2 SLP144 T01830178 $
(24.8 nm NW from L35)
TAF Summary (Translated TAF)
KRIV
(12.9 nm SW from KSBD)
1914/2018 VRB06KT 9999 BKN020 QNH2987INS TEMPO 1914/1918 BKN015 BECMG 1917/1918 VRB06KT 9999 SCT025 QNH2984INS BECMG 1921/1922 30012KT 9999 SKC QNH2981INS BECMG 2005/2006 VRB06KT 9999 SKC QNH2989INS BECMG 2008/2009 VRB06KT 9999 BKN014 QNH2990INS BECMG 2015/2016 VRB06KT 9999 FEW150 QNH2992INS TX28/1922Z TN16/2013Z AMD 191407
  Airport Weather Conditions for L35

Current weather conditions are
not available for L35


The nearest NOAA weather station
is at SBD, (21.4 nm SW from L35)
  
 Current Weather at SBD
66° F
Overcast
Southwest winds at 3.5 mph
SBD NOAA Radar

Pressure: 29.91 in
Humidity: 78%
Wind: Southwest at 3.5 MPH (3 KT)
Dew Point: 59.0°F
Visibility: 7.00 mi


Airport Weather Forecast for L35

Translated METAR and TAF for KSBD
Translated METAR for KSBD (1552 UTC 19 September 2014)
found at http://aviationweather.gov/adds/metars/
 
METAR text: KSBD 191451Z 23004KT 7SM OVC028 19/15 A2992
Conditions at: KSBD (SAN BERNARDINO , CA, US) observed 1451 UTC 19 September 2014
Temperature: 19.0°C (66°F)
Dewpoint: 15.0°C (59°F) [RH = 78%]
Pressure (altimeter): 29.92 inches Hg (1013.3 mb)
Winds: from the SW (230 degrees) at 5 MPH (4 knots; 2.1 m/s)
Visibility: 7 miles (11 km)
Ceiling: 2800 feet AGL
Clouds: overcast cloud deck at 2800 feet AGL
Weather: no significant weather observed at this time
Translated TAF for KSBD

There is no translated TAF available for this airport

Find All Airport Services Find A Hotel Find A Rental Car Find A Golf Course Find A Restaurant $100 Hamburger



FBO's on the Field
FBO Company Facility Photos Services Transportation Aviation Fuel Prices: Prices include tax
Catering Weather Repair Courtesy Rental Type 100LL JetA JetA+ MOGAS 8087
 
Big Bear Airport

This FBO has not yet been rated
FS:Epic
Last Updated: Sep-05
Login to update fuel prices
SS:
Contact Big Bear AirportMore FBO Information
 
Add another FBO Facility Photos Catering Weather Repair Courtesy Rental Type 100LL JetA JetA+ MOGAS 8087
Services Transportation Aviation Fuel Prices: Prices include tax


model-print
model-print
model-print
model-print